Terminal Aerodrome Forecast
Issued by NWS

Current Version | Previous Version | Text Only | Print | Product List | Glossary On
Versions: 1 2 3 4 5 6 7 8 9 10 11 12 13 14 15 16 17 18 19 20 21 22 23 24 25 26 27 28
000
FTUS45 KBOI 262324
TAFMYL
TAF
KMYL 262324Z 2700/2724 VRB03KT P6SM VCSH FEW015 BKN035 OVC070
      TEMPO 2700/2702 1SM -SHSN BR OVC015
     FM271000 VRB03KT P6SM VCSH OVC040
     FM271600 VRB03KT 4SM -SN BR OVC025=

USA.gov is the U.S. government's official web portal to all federal, state and local government web resources and services.